sensor_id;sensor_type;location;lat;lon;timestamp;temperature;humidity
6724;DHT22;3399;52.530;13.304;2023-05-17T00:02:11;9.90;93.60
6724;DHT22;3399;52.530;13.304;2023-05-17T00:04:37;9.90;93.80
6724;DHT22;3399;52.530;13.304;2023-05-17T00:07:03;9.90;94.60
6724;DHT22;3399;52.530;13.304;2023-05-17T00:09:28;9.80;95.20
6724;DHT22;3399;52.530;13.304;2023-05-17T00:11:54;9.70;96.10
6724;DHT22;3399;52.530;13.304;2023-05-17T00:14:19;9.70;96.20
6724;DHT22;3399;52.530;13.304;2023-05-17T00:16:45;9.70;96.90
6724;DHT22;3399;52.530;13.304;2023-05-17T00:19:10;9.70;97.10
6724;DHT22;3399;52.530;13.304;2023-05-17T00:21:36;9.70;97.70
6724;DHT22;3399;52.530;13.304;2023-05-17T00:24:02;9.70;98.50
6724;DHT22;3399;52.530;13.304;2023-05-17T00:26:27;9.60;98.60
6724;DHT22;3399;52.530;13.304;2023-05-17T00:28:53;9.50;99.40
6724;DHT22;3399;52.530;13.304;2023-05-17T00:31:18;9.50;99.80
6724;DHT22;3399;52.530;13.304;2023-05-17T00:33:44;9.40;99.90
6724;DHT22;3399;52.530;13.304;2023-05-17T00:36:10;9.40;99.90
6724;DHT22;3399;52.530;13.304;2023-05-17T00:38:36;9.50;99.90
6724;DHT22;3399;52.530;13.304;2023-05-17T00:41:01;9.50;99.90
6724;DHT22;3399;52.530;13.304;2023-05-17T00:43:27;9.50;99.90
6724;DHT22;3399;52.530;13.304;2023-05-17T00:45:52;9.50;99.90
6724;DHT22;3399;52.530;13.304;2023-05-17T00:48:18;9.50;99.90
6724;DHT22;3399;52.530;13.304;2023-05-17T00:50:50;9.50;99.90
6724;DHT22;3399;52.530;13.304;2023-05-17T00:53:16;9.40;99.90
6724;DHT22;3399;52.530;13.304;2023-05-17T00:55:42;9.40;99.90
6724;DHT22;3399;52.530;13.304;2023-05-17T00:58:12;9.40;99.90
6724;DHT22;3399;52.530;13.304;2023-05-17T01:00:38;9.40;99.90
6724;DHT22;3399;52.530;13.304;2023-05-17T01:03:04;9.50;99.90
6724;DHT22;3399;52.530;13.304;2023-05-17T01:05:29;9.50;99.90
6724;DHT22;3399;52.530;13.304;2023-05-17T01:07:55;9.40;99.90
6724;DHT22;3399;52.530;13.304;2023-05-17T01:10:30;9.30;99.90
6724;DHT22;3399;52.530;13.304;2023-05-17T01:13:05;9.20;99.90
6724;DHT22;3399;52.530;13.304;2023-05-17T01:15:35;9.20;99.90
6724;DHT22;3399;52.530;13.304;2023-05-17T01:18:51;9.10;99.90
6724;DHT22;3399;52.530;13.304;2023-05-17T01:24:11;8.90;99.90
6724;DHT22;3399;52.530;13.304;2023-05-17T01:26:42;8.90;99.90
6724;DHT22;3399;52.530;13.304;2023-05-17T01:29:12;8.80;99.90
6724;DHT22;3399;52.530;13.304;2023-05-17T01:31:38;8.70;99.90
6724;DHT22;3399;52.530;13.304;2023-05-17T01:34:08;8.60;99.90
6724;DHT22;3399;52.530;13.304;2023-05-17T01:36:37;8.60;99.90
6724;DHT22;3399;52.530;13.304;2023-05-17T01:39:02;8.60;99.90
6724;DHT22;3399;52.530;13.304;2023-05-17T01:41:40;8.60;99.90
6724;DHT22;3399;52.530;13.304;2023-05-17T01:44:42;8.60;99.90
6724;DHT22;3399;52.530;13.304;2023-05-17T01:47:15;8.60;99.90
6724;DHT22;3399;52.530;13.304;2023-05-17T01:49:46;8.70;99.90
6724;DHT22;3399;52.530;13.304;2023-05-17T01:52:43;8.70;99.90
6724;DHT22;3399;52.530;13.304;2023-05-17T01:57:48;8.80;99.90
6724;DHT22;3399;52.530;13.304;2023-05-17T02:00:16;8.70;99.90
6724;DHT22;3399;52.530;13.304;2023-05-17T02:02:43;8.70;99.90
6724;DHT22;3399;52.530;13.304;2023-05-17T02:05:09;8.70;99.90
6724;DHT22;3399;52.530;13.304;2023-05-17T02:07:35;8.70;99.90
6724;DHT22;3399;52.530;13.304;2023-05-17T02:10:01;8.70;99.90
6724;DHT22;3399;52.530;13.304;2023-05-17T02:12:26;8.70;99.90
6724;DHT22;3399;52.530;13.304;2023-05-17T02:14:51;8.60;99.90
6724;DHT22;3399;52.530;13.304;2023-05-17T02:17:17;8.60;99.90
6724;DHT22;3399;52.530;13.304;2023-05-17T02:19:43;8.50;99.90
6724;DHT22;3399;52.530;13.304;2023-05-17T02:22:08;8.50;99.90
6724;DHT22;3399;52.530;13.304;2023-05-17T02:24:34;8.60;99.90
6724;DHT22;3399;52.530;13.304;2023-05-17T02:26:59;8.70;99.90
6724;DHT22;3399;52.530;13.304;2023-05-17T02:29:25;8.90;99.90
6724;DHT22;3399;52.530;13.304;2023-05-17T02:31:50;8.80;99.90
6724;DHT22;3399;52.530;13.304;2023-05-17T02:34:16;8.90;99.90
6724;DHT22;3399;52.530;13.304;2023-05-17T02:36:41;8.90;99.90
6724;DHT22;3399;52.530;13.304;2023-05-17T02:39:08;9.00;99.90
6724;DHT22;3399;52.530;13.304;2023-05-17T02:41:34;8.90;99.90
6724;DHT22;3399;52.530;13.304;2023-05-17T02:43:59;8.90;99.90
6724;DHT22;3399;52.530;13.304;2023-05-17T02:46:25;9.00;99.90
6724;DHT22;3399;52.530;13.304;2023-05-17T02:48:51;9.00;99.90
6724;DHT22;3399;52.530;13.304;2023-05-17T02:51:16;9.00;99.90
6724;DHT22;3399;52.530;13.304;2023-05-17T02:53:42;9.00;99.90
6724;DHT22;3399;52.530;13.304;2023-05-17T02:56:07;8.90;99.90
6724;DHT22;3399;52.530;13.304;2023-05-17T02:58:33;8.90;99.90
6724;DHT22;3399;52.530;13.304;2023-05-17T03:00:58;8.90;99.90
6724;DHT22;3399;52.530;13.304;2023-05-17T03:03:24;8.90;99.90
6724;DHT22;3399;52.530;13.304;2023-05-17T03:05:50;8.80;99.90
6724;DHT22;3399;52.530;13.304;2023-05-17T03:08:15;8.90;99.90
6724;DHT22;3399;52.530;13.304;2023-05-17T03:10:41;8.90;99.90
6724;DHT22;3399;52.530;13.304;2023-05-17T03:13:06;8.90;99.90
6724;DHT22;3399;52.530;13.304;2023-05-17T03:15:31;9.00;99.90
6724;DHT22;3399;52.530;13.304;2023-05-17T03:17:57;9.10;99.90
6724;DHT22;3399;52.530;13.304;2023-05-17T03:20:23;9.10;99.90
6724;DHT22;3399;52.530;13.304;2023-05-17T03:22:48;9.10;99.90
6724;DHT22;3399;52.530;13.304;2023-05-17T03:25:14;9.10;99.90
6724;DHT22;3399;52.530;13.304;2023-05-17T03:27:40;9.00;99.90
6724;DHT22;3399;52.530;13.304;2023-05-17T03:30:06;9.00;99.90
6724;DHT22;3399;52.530;13.304;2023-05-17T03:32:31;9.00;99.90
6724;DHT22;3399;52.530;13.304;2023-05-17T03:34:57;9.00;99.90
6724;DHT22;3399;52.530;13.304;2023-05-17T03:37:22;9.00;99.90
6724;DHT22;3399;52.530;13.304;2023-05-17T03:39:48;9.00;99.90
6724;DHT22;3399;52.530;13.304;2023-05-17T03:42:13;9.00;99.90
6724;DHT22;3399;52.530;13.304;2023-05-17T03:44:39;9.10;99.90
6724;DHT22;3399;52.530;13.304;2023-05-17T03:47:05;9.10;99.90
6724;DHT22;3399;52.530;13.304;2023-05-17T03:49:31;9.10;99.90
6724;DHT22;3399;52.530;13.304;2023-05-17T03:51:57;9.10;99.90
6724;DHT22;3399;52.530;13.304;2023-05-17T03:54:22;9.00;99.90
6724;DHT22;3399;52.530;13.304;2023-05-17T03:56:48;8.90;99.90
6724;DHT22;3399;52.530;13.304;2023-05-17T03:59:14;8.90;99.90
6724;DHT22;3399;52.530;13.304;2023-05-17T04:01:41;8.90;99.90
6724;DHT22;3399;52.530;13.304;2023-05-17T04:04:07;9.00;99.90
6724;DHT22;3399;52.530;13.304;2023-05-17T04:06:33;9.00;99.90
6724;DHT22;3399;52.530;13.304;2023-05-17T04:08:58;9.00;99.90
6724;DHT22;3399;52.530;13.304;2023-05-17T04:11:27;8.90;99.90
6724;DHT22;3399;52.530;13.304;2023-05-17T04:13:53;8.90;99.90
6724;DHT22;3399;52.530;13.304;2023-05-17T04:16:19;8.90;99.90
6724;DHT22;3399;52.530;13.304;2023-05-17T04:18:45;9.00;99.90
6724;DHT22;3399;52.530;13.304;2023-05-17T04:21:11;9.10;99.90
6724;DHT22;3399;52.530;13.304;2023-05-17T04:23:37;9.10;99.90
6724;DHT22;3399;52.530;13.304;2023-05-17T04:26:03;9.10;99.90
6724;DHT22;3399;52.530;13.304;2023-05-17T04:28:30;9.00;99.90
6724;DHT22;3399;52.530;13.304;2023-05-17T04:30:56;9.00;99.90
6724;DHT22;3399;52.530;13.304;2023-05-17T04:33:22;9.10;99.90
6724;DHT22;3399;52.530;13.304;2023-05-17T04:35:49;9.10;99.90
6724;DHT22;3399;52.530;13.304;2023-05-17T04:38:15;9.10;99.90
6724;DHT22;3399;52.530;13.304;2023-05-17T04:40:40;9.00;99.90
6724;DHT22;3399;52.530;13.304;2023-05-17T04:43:06;9.00;99.90
6724;DHT22;3399;52.530;13.304;2023-05-17T04:45:32;8.90;99.90
6724;DHT22;3399;52.530;13.304;2023-05-17T04:47:58;9.00;99.90
6724;DHT22;3399;52.530;13.304;2023-05-17T04:50:24;9.00;99.90
6724;DHT22;3399;52.530;13.304;2023-05-17T04:52:50;8.90;99.90
6724;DHT22;3399;52.530;13.304;2023-05-17T04:55:16;8.90;99.90
6724;DHT22;3399;52.530;13.304;2023-05-17T04:57:41;8.90;99.90
6724;DHT22;3399;52.530;13.304;2023-05-17T05:00:07;8.90;99.90
6724;DHT22;3399;52.530;13.304;2023-05-17T05:02:34;9.00;99.90
6724;DHT22;3399;52.530;13.304;2023-05-17T05:05:00;9.00;99.90
6724;DHT22;3399;52.530;13.304;2023-05-17T05:07:26;9.00;99.90
6724;DHT22;3399;52.530;13.304;2023-05-17T05:09:51;9.00;99.90
6724;DHT22;3399;52.530;13.304;2023-05-17T05:12:17;9.00;99.90
6724;DHT22;3399;52.530;13.304;2023-05-17T05:14:43;9.10;99.90
6724;DHT22;3399;52.530;13.304;2023-05-17T05:17:09;9.10;99.90
6724;DHT22;3399;52.530;13.304;2023-05-17T05:19:34;9.10;99.90
6724;DHT22;3399;52.530;13.304;2023-05-17T05:22:00;9.20;99.90
6724;DHT22;3399;52.530;13.304;2023-05-17T05:24:25;9.30;99.90
6724;DHT22;3399;52.530;13.304;2023-05-17T05:26:51;9.30;99.90
6724;DHT22;3399;52.530;13.304;2023-05-17T05:29:17;9.40;99.90
6724;DHT22;3399;52.530;13.304;2023-05-17T05:31:43;9.40;99.90
6724;DHT22;3399;52.530;13.304;2023-05-17T05:34:10;9.50;99.90
6724;DHT22;3399;52.530;13.304;2023-05-17T05:36:35;9.40;99.90
6724;DHT22;3399;52.530;13.304;2023-05-17T05:39:01;9.50;99.90
6724;DHT22;3399;52.530;13.304;2023-05-17T05:41:26;9.50;99.90
6724;DHT22;3399;52.530;13.304;2023-05-17T05:43:52;9.50;99.90
6724;DHT22;3399;52.530;13.304;2023-05-17T05:46:17;9.60;99.90
6724;DHT22;3399;52.530;13.304;2023-05-17T05:48:43;9.60;99.90
6724;DHT22;3399;52.530;13.304;2023-05-17T05:51:09;9.70;99.90
6724;DHT22;3399;52.530;13.304;2023-05-17T05:53:35;9.80;99.90
6724;DHT22;3399;52.530;13.304;2023-05-17T05:56:01;9.80;99.90
6724;DHT22;3399;52.530;13.304;2023-05-17T05:58:28;9.80;99.90
6724;DHT22;3399;52.530;13.304;2023-05-17T06:00:53;9.90;99.90
6724;DHT22;3399;52.530;13.304;2023-05-17T06:03:19;9.90;99.90
6724;DHT22;3399;52.530;13.304;2023-05-17T06:05:45;10.00;99.90
6724;DHT22;3399;52.530;13.304;2023-05-17T06:08:10;10.00;99.90
6724;DHT22;3399;52.530;13.304;2023-05-17T06:10:36;10.00;99.90
6724;DHT22;3399;52.530;13.304;2023-05-17T06:13:01;10.00;99.90
6724;DHT22;3399;52.530;13.304;2023-05-17T06:15:27;10.00;99.90
6724;DHT22;3399;52.530;13.304;2023-05-17T06:17:53;9.90;99.90
6724;DHT22;3399;52.530;13.304;2023-05-17T06:20:18;9.90;99.90
6724;DHT22;3399;52.530;13.304;2023-05-17T06:22:44;9.90;99.90
6724;DHT22;3399;52.530;13.304;2023-05-17T06:25:09;10.10;99.90
6724;DHT22;3399;52.530;13.304;2023-05-17T06:27:36;10.20;99.90
6724;DHT22;3399;52.530;13.304;2023-05-17T06:30:02;10.30;99.90
6724;DHT22;3399;52.530;13.304;2023-05-17T06:32:29;10.30;99.90
6724;DHT22;3399;52.530;13.304;2023-05-17T06:34:55;10.20;99.90
6724;DHT22;3399;52.530;13.304;2023-05-17T06:37:20;10.10;99.90
6724;DHT22;3399;52.530;13.304;2023-05-17T06:39:46;10.00;99.90
6724;DHT22;3399;52.530;13.304;2023-05-17T06:42:11;10.00;99.90
6724;DHT22;3399;52.530;13.304;2023-05-17T06:44:37;10.00;99.90
6724;DHT22;3399;52.530;13.304;2023-05-17T06:47:02;10.00;99.90
6724;DHT22;3399;52.530;13.304;2023-05-17T06:49:28;10.10;99.90
6724;DHT22;3399;52.530;13.304;2023-05-17T06:51:57;10.10;99.90
6724;DHT22;3399;52.530;13.304;2023-05-17T06:54:30;10.20;99.90
6724;DHT22;3399;52.530;13.304;2023-05-17T06:57:02;10.40;99.90
6724;DHT22;3399;52.530;13.304;2023-05-17T06:59:28;10.50;99.90
6724;DHT22;3399;52.530;13.304;2023-05-17T07:01:53;10.50;99.90
6724;DHT22;3399;52.530;13.304;2023-05-17T07:04:19;10.50;99.90
6724;DHT22;3399;52.530;13.304;2023-05-17T07:06:45;10.70;99.90
6724;DHT22;3399;52.530;13.304;2023-05-17T07:09:11;11.00;99.90
6724;DHT22;3399;52.530;13.304;2023-05-17T07:11:37;11.20;99.90
6724;DHT22;3399;52.530;13.304;2023-05-17T07:14:02;11.10;99.90
6724;DHT22;3399;52.530;13.304;2023-05-17T07:16:28;10.80;99.90
6724;DHT22;3399;52.530;13.304;2023-05-17T07:18:53;10.60;99.90
6724;DHT22;3399;52.530;13.304;2023-05-17T07:21:19;10.60;99.90
6724;DHT22;3399;52.530;13.304;2023-05-17T07:23:44;10.60;99.90
6724;DHT22;3399;52.530;13.304;2023-05-17T07:26:10;10.50;99.90
6724;DHT22;3399;52.530;13.304;2023-05-17T07:28:35;10.50;99.90
6724;DHT22;3399;52.530;13.304;2023-05-17T07:31:01;10.60;99.90
6724;DHT22;3399;52.530;13.304;2023-05-17T07:33:26;10.70;99.90
6724;DHT22;3399;52.530;13.304;2023-05-17T07:35:52;10.70;99.90
6724;DHT22;3399;52.530;13.304;2023-05-17T07:38:18;10.80;99.90
6724;DHT22;3399;52.530;13.304;2023-05-17T07:40:43;10.90;99.90
6724;DHT22;3399;52.530;13.304;2023-05-17T07:43:09;10.70;99.50
6724;DHT22;3399;52.530;13.304;2023-05-17T07:45:34;10.70;99.30
6724;DHT22;3399;52.530;13.304;2023-05-17T07:48:00;10.80;98.90
6724;DHT22;3399;52.530;13.304;2023-05-17T07:50:26;11.00;98.70
6724;DHT22;3399;52.530;13.304;2023-05-17T07:52:52;11.00;98.40
6724;DHT22;3399;52.530;13.304;2023-05-17T07:55:17;11.20;99.00
6724;DHT22;3399;52.530;13.304;2023-05-17T07:57:44;11.30;99.30
6724;DHT22;3399;52.530;13.304;2023-05-17T08:00:12;11.30;98.20
6724;DHT22;3399;52.530;13.304;2023-05-17T08:02:38;11.10;97.70
6724;DHT22;3399;52.530;13.304;2023-05-17T08:05:04;11.10;97.90
6724;DHT22;3399;52.530;13.304;2023-05-17T08:07:30;11.00;97.90
6724;DHT22;3399;52.530;13.304;2023-05-17T08:09:55;11.10;97.40
6724;DHT22;3399;52.530;13.304;2023-05-17T08:12:21;11.10;97.70
6724;DHT22;3399;52.530;13.304;2023-05-17T08:14:46;11.20;97.80
6724;DHT22;3399;52.530;13.304;2023-05-17T08:17:12;11.30;97.20
6724;DHT22;3399;52.530;13.304;2023-05-17T08:19:37;11.30;97.20
6724;DHT22;3399;52.530;13.304;2023-05-17T08:22:03;11.30;97.30
6724;DHT22;3399;52.530;13.304;2023-05-17T08:24:28;11.30;97.30
6724;DHT22;3399;52.530;13.304;2023-05-17T08:26:54;11.30;97.10
6724;DHT22;3399;52.530;13.304;2023-05-17T08:29:20;11.40;97.10
6724;DHT22;3399;52.530;13.304;2023-05-17T08:31:46;11.40;95.70
6724;DHT22;3399;52.530;13.304;2023-05-17T08:34:11;11.50;94.80
6724;DHT22;3399;52.530;13.304;2023-05-17T08:36:37;11.40;94.30
6724;DHT22;3399;52.530;13.304;2023-05-17T08:39:02;11.30;94.70
6724;DHT22;3399;52.530;13.304;2023-05-17T08:41:28;11.30;95.30
6724;DHT22;3399;52.530;13.304;2023-05-17T08:43:56;11.30;95.80
6724;DHT22;3399;52.530;13.304;2023-05-17T08:46:24;11.40;96.00
6724;DHT22;3399;52.530;13.304;2023-05-17T08:48:52;11.40;96.10
6724;DHT22;3399;52.530;13.304;2023-05-17T08:51:18;11.40;96.00
6724;DHT22;3399;52.530;13.304;2023-05-17T08:53:45;11.30;96.10
6724;DHT22;3399;52.530;13.304;2023-05-17T08:56:11;11.40;95.00
6724;DHT22;3399;52.530;13.304;2023-05-17T08:58:42;11.40;94.50
6724;DHT22;3399;52.530;13.304;2023-05-17T09:01:07;11.60;94.10
6724;DHT22;3399;52.530;13.304;2023-05-17T09:03:35;11.60;93.30
6724;DHT22;3399;52.530;13.304;2023-05-17T09:06:04;11.60;92.50
6724;DHT22;3399;52.530;13.304;2023-05-17T09:08:30;11.70;93.10
6724;DHT22;3399;52.530;13.304;2023-05-17T09:10:57;11.90;93.30
6724;DHT22;3399;52.530;13.304;2023-05-17T09:13:24;11.90;93.70
6724;DHT22;3399;52.530;13.304;2023-05-17T09:15:50;11.80;93.50
6724;DHT22;3399;52.530;13.304;2023-05-17T09:18:16;11.90;93.40
6724;DHT22;3399;52.530;13.304;2023-05-17T09:20:42;11.90;93.40
6724;DHT22;3399;52.530;13.304;2023-05-17T09:23:13;11.90;92.30
6724;DHT22;3399;52.530;13.304;2023-05-17T09:25:46;12.00;91.60
6724;DHT22;3399;52.530;13.304;2023-05-17T09:28:12;12.00;92.50
6724;DHT22;3399;52.530;13.304;2023-05-17T09:30:38;12.10;92.70
6724;DHT22;3399;52.530;13.304;2023-05-17T09:33:05;12.10;91.80
6724;DHT22;3399;52.530;13.304;2023-05-17T09:35:34;12.20;92.00
6724;DHT22;3399;52.530;13.304;2023-05-17T09:38:08;12.20;91.90
6724;DHT22;3399;52.530;13.304;2023-05-17T09:40:38;12.20;92.30
6724;DHT22;3399;52.530;13.304;2023-05-17T09:43:04;12.40;91.30
6724;DHT22;3399;52.530;13.304;2023-05-17T09:45:33;12.60;90.00
6724;DHT22;3399;52.530;13.304;2023-05-17T09:48:25;12.50;90.00
6724;DHT22;3399;52.530;13.304;2023-05-17T09:50:55;12.60;90.30
6724;DHT22;3399;52.530;13.304;2023-05-17T09:53:31;12.70;90.00
6724;DHT22;3399;52.530;13.304;2023-05-17T09:55:59;12.70;91.00
6724;DHT22;3399;52.530;13.304;2023-05-17T09:58:26;12.80;90.40
6724;DHT22;3399;52.530;13.304;2023-05-17T10:00:58;12.80;90.60
6724;DHT22;3399;52.530;13.304;2023-05-17T10:03:25;12.80;86.60
6724;DHT22;3399;52.530;13.304;2023-05-17T10:05:54;12.90;86.80
6724;DHT22;3399;52.530;13.304;2023-05-17T10:08:23;13.00;87.10
6724;DHT22;3399;52.530;13.304;2023-05-17T10:10:54;13.00;86.20
6724;DHT22;3399;52.530;13.304;2023-05-17T10:13:23;13.10;86.20
6724;DHT22;3399;52.530;13.304;2023-05-17T10:15:50;13.20;87.30
6724;DHT22;3399;52.530;13.304;2023-05-17T10:18:16;13.40;86.70
6724;DHT22;3399;52.530;13.304;2023-05-17T10:20:42;13.60;87.70
6724;DHT22;3399;52.530;13.304;2023-05-17T10:23:10;13.50;88.30
6724;DHT22;3399;52.530;13.304;2023-05-17T10:25:36;13.60;90.10
6724;DHT22;3399;52.530;13.304;2023-05-17T10:28:02;13.70;86.90
6724;DHT22;3399;52.530;13.304;2023-05-17T10:30:31;13.70;89.40
6724;DHT22;3399;52.530;13.304;2023-05-17T10:32:58;13.80;86.70
6724;DHT22;3399;52.530;13.304;2023-05-17T10:35:26;13.80;86.20
6724;DHT22;3399;52.530;13.304;2023-05-17T10:37:52;13.80;87.50
6724;DHT22;3399;52.530;13.304;2023-05-17T10:40:18;13.80;88.40
6724;DHT22;3399;52.530;13.304;2023-05-17T10:42:48;13.80;85.00
6724;DHT22;3399;52.530;13.304;2023-05-17T10:45:23;13.70;83.30
6724;DHT22;3399;52.530;13.304;2023-05-17T10:47:51;14.00;84.10
6724;DHT22;3399;52.530;13.304;2023-05-17T10:50:22;14.00;80.80
6724;DHT22;3399;52.530;13.304;2023-05-17T10:52:48;14.10;80.50
6724;DHT22;3399;52.530;13.304;2023-05-17T10:55:22;14.10;85.20
6724;DHT22;3399;52.530;13.304;2023-05-17T10:58:18;14.10;84.60
6724;DHT22;3399;52.530;13.304;2023-05-17T11:00:47;14.00;82.70
6724;DHT22;3399;52.530;13.304;2023-05-17T11:08:35;14.50;83.60
6724;DHT22;3399;52.530;13.304;2023-05-17T11:11:11;14.70;82.20
6724;DHT22;3399;52.530;13.304;2023-05-17T11:13:53;14.70;80.10
6724;DHT22;3399;52.530;13.304;2023-05-17T11:16:26;14.80;79.30
6724;DHT22;3399;52.530;13.304;2023-05-17T11:18:53;14.90;81.00
6724;DHT22;3399;52.530;13.304;2023-05-17T11:21:20;14.90;78.50
6724;DHT22;3399;52.530;13.304;2023-05-17T11:23:47;15.30;82.60
6724;DHT22;3399;52.530;13.304;2023-05-17T11:26:38;15.60;80.60
6724;DHT22;3399;52.530;13.304;2023-05-17T11:29:08;16.00;76.90
6724;DHT22;3399;52.530;13.304;2023-05-17T11:31:35;16.10;73.80
6724;DHT22;3399;52.530;13.304;2023-05-17T11:34:02;16.20;76.50
6724;DHT22;3399;52.530;13.304;2023-05-17T11:36:28;16.40;76.00
6724;DHT22;3399;52.530;13.304;2023-05-17T11:39:11;16.40;75.50
6724;DHT22;3399;52.530;13.304;2023-05-17T11:41:38;16.80;76.50
6724;DHT22;3399;52.530;13.304;2023-05-17T11:44:07;17.00;69.70
6724;DHT22;3399;52.530;13.304;2023-05-17T11:46:34;17.10;72.00
6724;DHT22;3399;52.530;13.304;2023-05-17T11:49:01;17.00;69.60
6724;DHT22;3399;52.530;13.304;2023-05-17T11:51:27;16.80;66.10
6724;DHT22;3399;52.530;13.304;2023-05-17T11:53:56;16.80;70.20
6724;DHT22;3399;52.530;13.304;2023-05-17T11:56:23;16.80;68.70
6724;DHT22;3399;52.530;13.304;2023-05-17T11:58:52;16.90;69.00
6724;DHT22;3399;52.530;13.304;2023-05-17T12:01:18;17.10;67.30
6724;DHT22;3399;52.530;13.304;2023-05-17T12:03:44;17.10;68.40
6724;DHT22;3399;52.530;13.304;2023-05-17T12:06:13;17.30;69.20
6724;DHT22;3399;52.530;13.304;2023-05-17T12:08:42;17.40;68.20
6724;DHT22;3399;52.530;13.304;2023-05-17T12:11:11;17.60;66.10
6724;DHT22;3399;52.530;13.304;2023-05-17T12:13:38;17.50;64.90
6724;DHT22;3399;52.530;13.304;2023-05-17T12:16:08;17.50;68.30
6724;DHT22;3399;52.530;13.304;2023-05-17T12:18:39;17.50;70.60
6724;DHT22;3399;52.530;13.304;2023-05-17T12:21:06;17.60;62.60
6724;DHT22;3399;52.530;13.304;2023-05-17T12:23:36;17.90;67.70
6724;DHT22;3399;52.530;13.304;2023-05-17T12:26:12;17.90;67.10
6724;DHT22;3399;52.530;13.304;2023-05-17T12:28:43;17.80;66.10
6724;DHT22;3399;52.530;13.304;2023-05-17T12:31:11;17.70;65.40
6724;DHT22;3399;52.530;13.304;2023-05-17T12:33:40;17.60;63.70
6724;DHT22;3399;52.530;13.304;2023-05-17T12:36:07;17.80;64.00
6724;DHT22;3399;52.530;13.304;2023-05-17T12:38:34;17.80;60.30
6724;DHT22;3399;52.530;13.304;2023-05-17T12:41:01;17.80;61.40
6724;DHT22;3399;52.530;13.304;2023-05-17T12:43:28;18.10;62.30
6724;DHT22;3399;52.530;13.304;2023-05-17T12:46:04;18.00;59.00
6724;DHT22;3399;52.530;13.304;2023-05-17T12:48:31;18.00;58.00
6724;DHT22;3399;52.530;13.304;2023-05-17T12:50:58;18.50;60.20
6724;DHT22;3399;52.530;13.304;2023-05-17T12:53:37;18.60;61.50
6724;DHT22;3399;52.530;13.304;2023-05-17T12:56:02;18.70;58.80
6724;DHT22;3399;52.530;13.304;2023-05-17T12:58:28;18.60;58.30
6724;DHT22;3399;52.530;13.304;2023-05-17T13:01:01;18.40;57.40
6724;DHT22;3399;52.530;13.304;2023-05-17T13:03:27;18.10;59.20
6724;DHT22;3399;52.530;13.304;2023-05-17T13:06:06;18.40;59.30
6724;DHT22;3399;52.530;13.304;2023-05-17T13:08:34;18.30;58.50
6724;DHT22;3399;52.530;13.304;2023-05-17T13:11:12;18.50;61.20
6724;DHT22;3399;52.530;13.304;2023-05-17T13:13:38;18.70;57.70
6724;DHT22;3399;52.530;13.304;2023-05-17T13:16:04;18.80;58.80
6724;DHT22;3399;52.530;13.304;2023-05-17T13:18:30;18.70;59.40
6724;DHT22;3399;52.530;13.304;2023-05-17T13:21:00;18.90;59.50
6724;DHT22;3399;52.530;13.304;2023-05-17T13:23:25;19.40;56.30
6724;DHT22;3399;52.530;13.304;2023-05-17T13:25:51;19.40;57.50
6724;DHT22;3399;52.530;13.304;2023-05-17T13:28:18;19.20;57.60
6724;DHT22;3399;52.530;13.304;2023-05-17T13:30:43;19.00;57.30
6724;DHT22;3399;52.530;13.304;2023-05-17T13:33:16;18.80;59.80
6724;DHT22;3399;52.530;13.304;2023-05-17T13:35:42;18.70;58.70
6724;DHT22;3399;52.530;13.304;2023-05-17T13:38:07;18.20;58.70
6724;DHT22;3399;52.530;13.304;2023-05-17T13:40:33;18.00;60.90
6724;DHT22;3399;52.530;13.304;2023-05-17T13:42:58;18.30;61.20
6724;DHT22;3399;52.530;13.304;2023-05-17T13:45:24;18.50;58.40
6724;DHT22;3399;52.530;13.304;2023-05-17T13:47:49;18.50;57.20
6724;DHT22;3399;52.530;13.304;2023-05-17T13:50:15;18.70;57.50
6724;DHT22;3399;52.530;13.304;2023-05-17T13:52:41;19.20;58.90
6724;DHT22;3399;52.530;13.304;2023-05-17T13:55:08;19.20;57.10
6724;DHT22;3399;52.530;13.304;2023-05-17T13:57:37;18.50;57.00
6724;DHT22;3399;52.530;13.304;2023-05-17T14:00:03;18.20;57.40
6724;DHT22;3399;52.530;13.304;2023-05-17T14:02:29;18.40;57.10
6724;DHT22;3399;52.530;13.304;2023-05-17T14:04:55;19.00;57.00
6724;DHT22;3399;52.530;13.304;2023-05-17T14:07:20;19.10;55.90
6724;DHT22;3399;52.530;13.304;2023-05-17T14:09:46;19.80;55.20
6724;DHT22;3399;52.530;13.304;2023-05-17T14:12:11;19.90;54.60
6724;DHT22;3399;52.530;13.304;2023-05-17T14:14:37;19.90;53.90
6724;DHT22;3399;52.530;13.304;2023-05-17T14:17:03;20.10;55.20
6724;DHT22;3399;52.530;13.304;2023-05-17T14:19:28;20.30;56.00
6724;DHT22;3399;52.530;13.304;2023-05-17T14:21:54;20.20;53.40
6724;DHT22;3399;52.530;13.304;2023-05-17T14:24:19;20.30;51.80
6724;DHT22;3399;52.530;13.304;2023-05-17T14:26:45;19.80;52.40
6724;DHT22;3399;52.530;13.304;2023-05-17T14:29:11;19.90;52.50
6724;DHT22;3399;52.530;13.304;2023-05-17T14:31:36;20.10;53.00
6724;DHT22;3399;52.530;13.304;2023-05-17T14:34:02;20.60;53.70
6724;DHT22;3399;52.530;13.304;2023-05-17T14:36:28;20.50;51.60
6724;DHT22;3399;52.530;13.304;2023-05-17T14:38:53;20.60;51.50
6724;DHT22;3399;52.530;13.304;2023-05-17T14:41:19;20.50;51.00
6724;DHT22;3399;52.530;13.304;2023-05-17T14:43:46;20.50;51.70
6724;DHT22;3399;52.530;13.304;2023-05-17T14:46:11;20.60;50.20
6724;DHT22;3399;52.530;13.304;2023-05-17T14:48:38;20.50;51.10
6724;DHT22;3399;52.530;13.304;2023-05-17T14:51:04;20.80;51.00
6724;DHT22;3399;52.530;13.304;2023-05-17T14:53:30;21.00;52.00
6724;DHT22;3399;52.530;13.304;2023-05-17T14:55:56;20.70;51.70
6724;DHT22;3399;52.530;13.304;2023-05-17T14:58:23;20.60;51.10
6724;DHT22;3399;52.530;13.304;2023-05-17T15:00:49;20.10;50.40
6724;DHT22;3399;52.530;13.304;2023-05-17T15:03:18;20.30;52.80
6724;DHT22;3399;52.530;13.304;2023-05-17T15:05:44;20.70;52.00
6724;DHT22;3399;52.530;13.304;2023-05-17T15:08:09;20.60;50.50
6724;DHT22;3399;52.530;13.304;2023-05-17T15:10:37;20.90;51.90
6724;DHT22;3399;52.530;13.304;2023-05-17T15:13:02;21.10;49.10
6724;DHT22;3399;52.530;13.304;2023-05-17T15:15:28;20.80;48.80
6724;DHT22;3399;52.530;13.304;2023-05-17T15:17:56;20.90;49.50
6724;DHT22;3399;52.530;13.304;2023-05-17T15:20:22;20.40;49.90
6724;DHT22;3399;52.530;13.304;2023-05-17T15:22:47;20.70;49.60
6724;DHT22;3399;52.530;13.304;2023-05-17T15:25:13;20.90;49.70
6724;DHT22;3399;52.530;13.304;2023-05-17T15:27:38;20.80;50.70
6724;DHT22;3399;52.530;13.304;2023-05-17T15:30:04;20.60;48.60
6724;DHT22;3399;52.530;13.304;2023-05-17T15:32:32;20.70;50.30
6724;DHT22;3399;52.530;13.304;2023-05-17T15:34:58;20.70;47.90
6724;DHT22;3399;52.530;13.304;2023-05-17T15:37:23;20.90;51.70
6724;DHT22;3399;52.530;13.304;2023-05-17T15:39:49;21.60;47.90
6724;DHT22;3399;52.530;13.304;2023-05-17T15:42:14;21.70;49.30
6724;DHT22;3399;52.530;13.304;2023-05-17T15:44:40;21.40;46.40
6724;DHT22;3399;52.530;13.304;2023-05-17T15:47:05;21.40;48.00
6724;DHT22;3399;52.530;13.304;2023-05-17T15:49:31;21.20;47.50
6724;DHT22;3399;52.530;13.304;2023-05-17T15:51:57;21.30;48.80
6724;DHT22;3399;52.530;13.304;2023-05-17T15:54:23;21.30;47.30
6724;DHT22;3399;52.530;13.304;2023-05-17T15:56:48;21.60;47.60
6724;DHT22;3399;52.530;13.304;2023-05-17T15:59:13;21.90;48.20
6724;DHT22;3399;52.530;13.304;2023-05-17T16:01:40;22.30;49.50
6724;DHT22;3399;52.530;13.304;2023-05-17T16:04:06;22.20;46.60